Time,TemperatureF,DewpointF,PressureIn,WindDirection,WindDirectionDegrees,WindSpeedMPH,WindSpeedGustMPH,Humidity,HourlyPrecipIn,Conditions,Clouds,dailyrainin,SolarRadiationWatts/m^2,SoftwareType,DateUTC
2013-08-17 00:01:00,69.0,46.0,-100.00,SSW,204,0.0,6.0,43,0.00,,,0.00,0.000000,,2013-08-17 07:01:00,
2013-08-17 00:11:00,69.0,46.0,-100.00,SSW,204,0.0,6.0,43,0.00,,,0.00,0.000000,,2013-08-17 07:11:00,
2013-08-17 00:21:00,69.0,46.0,-100.00,SSW,204,0.0,6.0,43,0.00,,,0.00,0.000000,,2013-08-17 07:21:00,
2013-08-17 00:32:00,69.0,46.0,-100.00,SSW,204,0.0,6.0,43,0.00,,,0.00,0.000000,,2013-08-17 07:32:00,
2013-08-17 01:11:00,68.0,41.0,-100.00,WSW,242,0.0,3.0,38,-99.99,,,0.00,0.000000,,2013-08-17 08:11:00,
2013-08-17 01:21:00,68.0,41.0,-100.00,WSW,242,0.0,3.0,38,-99.99,,,0.00,0.000000,,2013-08-17 08:21:00,
2013-08-17 01:32:00,68.0,41.0,-100.00,WSW,242,0.0,3.0,38,-99.99,,,0.00,0.000000,,2013-08-17 08:32:00,
2013-08-17 01:33:00,68.0,39.0,-100.00,ESE,120,0.0,3.0,34,0.00,,,0.00,0.000000,,2013-08-17 08:33:00,
2013-08-17 01:52:00,68.0,39.0,-100.00,ESE,120,0.0,3.0,34,0.00,,,0.00,0.000000,,2013-08-17 08:52:00,
2013-08-17 02:01:00,68.0,39.0,-100.00,ESE,120,0.0,3.0,34,0.00,,,0.00,0.000000,,2013-08-17 09:01:00,
2013-08-17 02:11:00,68.0,39.0,-100.00,ESE,120,0.0,3.0,34,0.00,,,0.00,0.000000,,2013-08-17 09:11:00,
2013-08-17 02:21:00,68.0,39.0,-100.00,ESE,120,0.0,3.0,34,0.00,,,0.00,0.000000,,2013-08-17 09:21:00,
2013-08-17 02:53:00,69.0,36.0,-100.00,South,176,1.0,4.0,30,0.00,,,0.00,0.000000,,2013-08-17 09:53:00,
2013-08-17 03:03:00,69.0,36.0,-100.00,South,176,1.0,4.0,30,0.00,,,0.00,0.000000,,2013-08-17 10:03:00,
2013-08-17 03:23:00,69.0,36.0,-100.00,South,176,1.0,4.0,30,0.00,,,0.00,0.000000,,2013-08-17 10:23:00,
2013-08-17 03:32:00,69.0,36.0,-100.00,South,176,1.0,4.0,30,0.00,,,0.00,0.000000,,2013-08-17 10:32:00,
2013-08-17 03:52:00,69.0,35.0,-100.00,South,187,0.0,4.0,29,0.00,,,0.00,0.000000,,2013-08-17 10:52:00,
2013-08-17 04:02:00,69.0,35.0,-100.00,South,187,0.0,4.0,29,0.00,,,0.00,0.000000,,2013-08-17 11:02:00,
2013-08-17 04:52:00,68.0,35.0,-100.00,WNW,286,0.0,2.0,29,-99.99,,,0.00,0.000000,,2013-08-17 11:52:00,
2013-08-17 05:01:00,68.0,35.0,-100.00,WNW,286,0.0,2.0,29,-99.99,,,0.00,0.000000,,2013-08-17 12:01:00,
2013-08-17 05:11:00,68.0,35.0,-100.00,WNW,286,0.0,2.0,29,-99.99,,,0.00,0.000000,,2013-08-17 12:11:00,
2013-08-17 05:21:00,68.0,35.0,-100.00,WNW,286,0.0,2.0,29,-99.99,,,0.00,0.000000,,2013-08-17 12:21:00,
2013-08-17 05:32:00,68.0,35.0,-100.00,WNW,286,0.0,2.0,29,-99.99,,,0.00,0.000000,,2013-08-17 12:32:00,
2013-08-17 05:52:00,68.0,34.0,-100.00,ESE,116,0.0,2.0,28,0.00,,,0.00,0.000000,,2013-08-17 12:52:00,
2013-08-17 06:01:00,68.0,34.0,-100.00,ESE,116,0.0,2.0,28,0.00,,,0.00,0.000000,,2013-08-17 13:01:00,
2013-08-17 06:11:00,68.0,34.0,-100.00,ESE,116,0.0,2.0,28,0.00,,,0.00,0.000000,,2013-08-17 13:11:00,
2013-08-17 06:21:00,68.0,34.0,-100.00,ESE,116,0.0,2.0,28,0.00,,,0.00,0.000000,,2013-08-17 13:21:00,
2013-08-17 06:32:00,68.0,34.0,-100.00,ESE,116,0.0,2.0,28,0.00,,,0.00,0.000000,,2013-08-17 13:32:00,
2013-08-17 06:52:00,67.0,32.0,-100.00,SE,130,1.0,4.0,27,-99.99,,,0.00,2.000000,,2013-08-17 13:52:00,
2013-08-17 07:01:00,67.0,32.0,-100.00,SE,130,1.0,4.0,27,-99.99,,,0.00,2.000000,,2013-08-17 14:01:00,
2013-08-17 07:21:00,67.0,32.0,-100.00,SE,130,1.0,4.0,27,-99.99,,,0.00,2.000000,,2013-08-17 14:21:00,
2013-08-17 07:31:00,67.0,32.0,-100.00,SE,130,1.0,4.0,27,-99.99,,,0.00,2.000000,,2013-08-17 14:31:00,
2013-08-17 07:52:00,71.0,33.0,-100.00,SE,141,1.0,4.0,25,-99.99,,,0.00,49.000000,,2013-08-17 14:52:00,
2013-08-17 08:01:00,71.0,33.0,-100.00,SE,141,1.0,4.0,25,-99.99,,,0.00,49.000000,,2013-08-17 15:01:00,
2013-08-17 11:21:00,84.0,28.0,-100.00,SE,141,3.0,8.0,13,0.00,,,0.00,630.000000,,2013-08-17 18:21:00,
2013-08-17 11:32:00,84.0,28.0,-100.00,SE,141,3.0,8.0,13,0.00,,,0.00,630.000000,,2013-08-17 18:32:00,
2013-08-17 11:52:00,86.0,29.0,-100.00,SSE,159,2.0,11.0,13,0.00,,,0.00,771.000000,,2013-08-17 18:52:00,
2013-08-17 12:01:00,86.0,29.0,-100.00,SSE,159,2.0,11.0,13,0.00,,,0.00,771.000000,,2013-08-17 19:01:00,
2013-08-17 12:11:00,86.0,29.0,-100.00,SSE,159,2.0,11.0,13,0.00,,,0.00,771.000000,,2013-08-17 19:11:00,
2013-08-17 12:21:00,86.0,29.0,-100.00,SSE,159,2.0,11.0,13,0.00,,,0.00,771.000000,,2013-08-17 19:21:00,
2013-08-17 12:31:00,86.0,29.0,-100.00,SSE,159,2.0,11.0,13,0.00,,,0.00,771.000000,,2013-08-17 19:31:00,
2013-08-17 12:52:00,87.0,32.0,-100.00,ESE,122,4.0,11.0,14,0.00,,,0.00,919.000000,,2013-08-17 19:52:00,
2013-08-17 13:02:00,87.0,32.0,-100.00,ESE,122,4.0,11.0,14,0.00,,,0.00,919.000000,,2013-08-17 20:02:00,
2013-08-17 13:11:00,87.0,32.0,-100.00,ESE,122,4.0,11.0,14,0.00,,,0.00,919.000000,,2013-08-17 20:11:00,
2013-08-17 13:21:00,87.0,32.0,-100.00,ESE,122,4.0,11.0,14,0.00,,,0.00,919.000000,,2013-08-17 20:21:00,
2013-08-17 13:32:00,87.0,32.0,-100.00,ESE,122,4.0,11.0,14,0.00,,,0.00,919.000000,,2013-08-17 20:32:00,
2013-08-17 13:33:00,88.0,31.0,-100.00,SSE,148,5.0,11.0,13,0.00,,,0.00,945.000000,,2013-08-17 20:33:00,
2013-08-17 13:52:00,88.0,31.0,-100.00,SSE,148,5.0,11.0,13,0.00,,,0.00,945.000000,,2013-08-17 20:52:00,
2013-08-17 14:01:00,88.0,31.0,-100.00,SSE,148,5.0,11.0,13,0.00,,,0.00,945.000000,,2013-08-17 21:01:00,
2013-08-17 14:11:00,88.0,31.0,-100.00,SSE,148,5.0,11.0,13,0.00,,,0.00,945.000000,,2013-08-17 21:11:00,
2013-08-17 14:21:00,88.0,31.0,-100.00,SSE,148,5.0,11.0,13,0.00,,,0.00,945.000000,,2013-08-17 21:21:00,
2013-08-17 14:53:00,89.0,37.0,-100.00,SW,231,2.0,10.0,16,0.00,,,0.00,915.000000,,2013-08-17 21:53:00,
2013-08-17 15:03:00,89.0,37.0,-100.00,SW,231,2.0,10.0,16,0.00,,,0.00,915.000000,,2013-08-17 22:03:00,
2013-08-17 15:13:00,89.0,37.0,-100.00,SW,231,2.0,10.0,16,0.00,,,0.00,915.000000,,2013-08-17 22:13:00,
2013-08-17 15:22:00,89.0,37.0,-100.00,SW,231,2.0,10.0,16,0.00,,,0.00,915.000000,,2013-08-17 22:22:00,
2013-08-17 15:32:00,89.0,37.0,-100.00,SW,231,2.0,10.0,16,0.00,,,0.00,915.000000,,2013-08-17 22:32:00,
2013-08-17 15:52:00,88.0,41.0,-100.00,SE,146,2.0,10.0,19,0.00,,,0.00,825.000000,,2013-08-17 22:52:00,
2013-08-17 16:02:00,88.0,41.0,-100.00,SE,146,2.0,10.0,19,0.00,,,0.00,825.000000,,2013-08-17 23:02:00,
2013-08-17 16:11:00,88.0,41.0,-100.00,SE,146,2.0,10.0,19,0.00,,,0.00,825.000000,,2013-08-17 23:11:00,
2013-08-17 16:22:00,88.0,41.0,-100.00,SE,146,2.0,10.0,19,0.00,,,0.00,825.000000,,2013-08-17 23:22:00,
2013-08-17 16:32:00,88.0,41.0,-100.00,SE,146,2.0,10.0,19,0.00,,,0.00,825.000000,,2013-08-17 23:32:00,
2013-08-17 16:52:00,87.0,37.0,-100.00,WNW,292,2.0,8.0,17,0.00,,,0.00,693.000000,,2013-08-17 23:52:00,
2013-08-17 17:01:00,87.0,37.0,-100.00,WNW,292,2.0,8.0,17,0.00,,,0.00,693.000000,,2013-08-18 00:01:00,
2013-08-17 17:11:00,87.0,37.0,-100.00,WNW,292,2.0,8.0,17,0.00,,,0.00,693.000000,,2013-08-18 00:11:00,
2013-08-17 17:21:00,87.0,37.0,-100.00,WNW,292,2.0,8.0,17,0.00,,,0.00,693.000000,,2013-08-18 00:21:00,
2013-08-17 17:32:00,87.0,37.0,-100.00,WNW,292,2.0,8.0,17,0.00,,,0.00,693.000000,,2013-08-18 00:32:00,
2013-08-17 17:52:00,86.0,38.0,-100.00,WSW,243,0.0,6.0,18,0.00,,,0.00,467.000000,,2013-08-18 00:52:00,
2013-08-17 18:01:00,86.0,38.0,-100.00,WSW,243,0.0,6.0,18,0.00,,,0.00,467.000000,,2013-08-18 01:01:00,
2013-08-17 18:11:00,86.0,38.0,-100.00,WSW,243,0.0,6.0,18,0.00,,,0.00,467.000000,,2013-08-18 01:11:00,
2013-08-17 18:21:00,86.0,38.0,-100.00,WSW,243,0.0,6.0,18,0.00,,,0.00,467.000000,,2013-08-18 01:21:00,
2013-08-17 18:31:00,86.0,38.0,-100.00,WSW,243,0.0,6.0,18,0.00,,,0.00,467.000000,,2013-08-18 01:31:00,
2013-08-17 18:52:00,79.0,36.0,-100.00,SSW,207,1.0,4.0,21,0.00,,,0.00,88.000000,,2013-08-18 01:52:00,
2013-08-17 19:02:00,79.0,36.0,-100.00,SSW,207,1.0,4.0,21,0.00,,,0.00,88.000000,,2013-08-18 02:02:00,
2013-08-17 19:11:00,79.0,36.0,-100.00,SSW,207,1.0,4.0,21,0.00,,,0.00,88.000000,,2013-08-18 02:11:00,
2013-08-17 19:21:00,79.0,36.0,-100.00,SSW,207,1.0,4.0,21,0.00,,,0.00,88.000000,,2013-08-18 02:21:00,
2013-08-17 19:32:00,79.0,36.0,-100.00,SSW,207,1.0,4.0,21,0.00,,,0.00,88.000000,,2013-08-18 02:32:00,
2013-08-17 19:33:00,77.0,37.0,-100.00,NW,318,0.0,4.0,24,0.00,,,0.00,20.000000,,2013-08-18 02:33:00,
2013-08-17 19:52:00,77.0,37.0,-100.00,NW,318,0.0,4.0,24,0.00,,,0.00,20.000000,,2013-08-18 02:52:00,
2013-08-17 20:02:00,77.0,37.0,-100.00,NW,318,0.0,4.0,24,0.00,,,0.00,20.000000,,2013-08-18 03:02:00,
2013-08-17 20:11:00,77.0,37.0,-100.00,NW,318,0.0,4.0,24,0.00,,,0.00,20.000000,,2013-08-18 03:11:00,
2013-08-17 20:21:00,77.0,37.0,-100.00,NW,318,0.0,4.0,24,0.00,,,0.00,20.000000,,2013-08-18 03:21:00,
2013-08-17 20:53:00,72.0,41.0,-100.00,WNW,283,0.0,2.0,32,0.00,,,0.00,4.000000,,2013-08-18 03:53:00,
2013-08-17 21:02:00,-999.0,-99.9,-100.00,WNW,283,0.0,2.0,-999,0.00,,,0.00,4.000000,,2013-08-18 04:02:00,
2013-08-17 21:12:00,72.0,41.0,-100.00,WNW,283,0.0,2.0,32,0.00,,,0.00,4.000000,,2013-08-18 04:12:00,
2013-08-17 21:23:00,72.0,41.0,-100.00,WNW,283,0.0,2.0,32,0.00,,,0.00,4.000000,,2013-08-18 04:23:00,
2013-08-17 21:32:00,72.0,41.0,-100.00,WNW,283,0.0,2.0,32,0.00,,,0.00,4.000000,,2013-08-18 04:32:00,
2013-08-17 21:33:00,71.0,41.0,-100.00,NW,310,0.0,1.0,34,0.00,,,0.00,0.000000,,2013-08-18 04:33:00,
2013-08-17 21:53:00,71.0,41.0,-100.00,NW,310,0.0,1.0,34,0.00,,,0.00,0.000000,,2013-08-18 04:53:00,
2013-08-17 22:02:00,71.0,41.0,-100.00,NW,310,0.0,1.0,34,0.00,,,0.00,0.000000,,2013-08-18 05:02:00,
2013-08-17 22:12:00,71.0,41.0,-100.00,NW,310,0.0,1.0,34,0.00,,,0.00,0.000000,,2013-08-18 05:12:00,
2013-08-17 22:22:00,71.0,41.0,-100.00,NW,310,0.0,1.0,34,0.00,,,0.00,0.000000,,2013-08-18 05:22:00,
2013-08-17 22:52:00,70.0,43.0,-100.00,WSW,250,0.0,3.0,37,0.00,,,0.00,0.000000,,2013-08-18 05:52:00,
2013-08-17 23:01:00,70.0,43.0,-100.00,WSW,250,0.0,3.0,37,0.00,,,0.00,0.000000,,2013-08-18 06:01:00,
2013-08-17 23:11:00,70.0,43.0,-100.00,WSW,250,0.0,3.0,37,0.00,,,0.00,0.000000,,2013-08-18 06:11:00,
2013-08-17 23:21:00,70.0,43.0,-100.00,WSW,250,0.0,3.0,37,0.00,,,0.00,0.000000,,2013-08-18 06:21:00,
2013-08-17 23:31:00,70.0,43.0,-100.00,WSW,250,0.0,3.0,37,0.00,,,0.00,0.000000,,2013-08-18 06:31:00,
2013-08-17 23:52:00,69.0,42.0,-100.00,West,268,0.0,0.0,37,0.00,,,0.00,0.000000,,2013-08-18 06:52:00,